Flight Briefing for CPX411

Departure Arrival
Minneapolis-St Paul International Airport (KMSP)
Click to view FAA NOTAMS
Chicago/Rockford International Airport (KRFD)
Click to view FAA NOTAMS
Departure Time Arrival Time
N/A N/A
Aircraft Distance
B757-200SF 278nm
Departure METAR Arrival METAR
KMSP 252253Z 32007KT 10SM FEW055 SCT250 08/M07 A3034 RMK AO2 SLP281 T00781067 KRFD 252254Z 06007KT 10SM FEW250 07/M14 A3033 RMK AO2 SLP276 T00671139
Suggested Route
ZMBRO7 ODI J30 COTON RFD


View recent IFR Routes data
Notes



Charts and Procedures

Charts for KMSP
No chart available
Charts for KRFD
No chart available

Windy.com Weather Map